Fortson, Georgia
Current Conditions -  °F | °C
As of 9:51 PM on Wednesday 26 Nov 2014 (Local Time) from KCSG Reporting Station
Clear Clear  
Wind Chill: 42°   Ceiling: Unl
Heat Index: 45°   Visibility: 10mi
Dew Point: 32°   Wind: 6mph
Humidity: 60%   Direction: 210°SSW
Pressure: 30.12"   Gusts: NA
Location:  32.6°N, 84.94°W
Report Text: KCSG 270251Z AUTO 21005KT 10SM CLR 07/00 A3012 RMK AO2 SLP199 T00720000 58001
Loading
Personal Weather Stations






























Interactive Weather Map New forecast layout! Learn more

10-Day Weather Forecast

Advertisements
Track Severe Weather on mobile